createdAt,value
2023-04-30T00:00:54.249Z,8.23
2023-04-30T00:05:56.072Z,3.90
2023-04-30T00:10:59.691Z,3.07
2023-04-30T00:16:01.838Z,3.70
2023-04-30T00:21:04.526Z,6.40
2023-04-30T00:26:08.054Z,3.60
2023-04-30T00:31:10.234Z,4.10
2023-04-30T00:36:12.393Z,5.60
2023-04-30T00:41:16.655Z,2.13
2023-04-30T00:46:18.401Z,6.30
2023-04-30T00:51:21.203Z,3.10
2023-04-30T00:56:24.620Z,2.63
2023-04-30T01:01:27.912Z,2.90
2023-04-30T01:06:29.819Z,1.63
2023-04-30T01:11:45.461Z,3.17
2023-04-30T01:16:53.087Z,4.23
2023-04-30T01:21:57.888Z,4.20
2023-04-30T01:27:15.944Z,5.33
2023-04-30T01:32:19.294Z,1.97
2023-04-30T01:37:29.466Z,2.43
2023-04-30T01:42:39.788Z,2.97
2023-04-30T01:47:52.997Z,3.57
2023-04-30T01:52:59.112Z,4.20
2023-04-30T01:58:05.348Z,3.40
2023-04-30T02:03:08.967Z,1.97
2023-04-30T02:08:11.250Z,4.60
2023-04-30T02:13:13.474Z,3.43
2023-04-30T02:18:17.004Z,4.43
2023-04-30T02:23:19.147Z,3.63
2023-04-30T02:28:21.286Z,4.63
2023-04-30T02:33:25.380Z,4.17
2023-04-30T02:38:27.609Z,3.87
2023-04-30T02:43:29.776Z,5.33
2023-04-30T02:48:33.315Z,6.77
2023-04-30T02:53:35.482Z,3.90
2023-04-30T02:58:37.636Z,3.73
2023-04-30T03:03:40.986Z,2.77
2023-04-30T03:08:43.221Z,3.80
2023-04-30T03:13:45.786Z,3.40
2023-04-30T03:18:49.906Z,3.13
2023-04-30T03:23:52.083Z,9.70
2023-04-30T03:28:54.180Z,2.93
2023-04-30T03:33:58.161Z,8.33
2023-04-30T03:39:00.231Z,2.57
2023-04-30T03:44:02.372Z,4.50
2023-04-30T03:49:06.010Z,3.20
2023-04-30T03:54:08.194Z,2.27
2023-04-30T03:59:10.362Z,3.03
2023-04-30T04:04:14.063Z,3.33
2023-04-30T04:09:16.239Z,2.97
2023-04-30T04:14:18.318Z,2.37
2023-04-30T04:19:21.476Z,5.83
2023-04-30T04:24:25.153Z,5.43
2023-04-30T04:29:27.346Z,3.70
2023-04-30T04:34:31.067Z,10.90
2023-04-30T04:39:33.169Z,6.83
2023-04-30T04:44:35.031Z,4.67
2023-04-30T04:49:38.554Z,4.17
2023-04-30T04:54:40.714Z,3.00
2023-04-30T04:59:43.144Z,3.83
2023-04-30T05:04:46.945Z,2.17
2023-04-30T05:09:49.189Z,4.07
2023-04-30T05:14:51.320Z,4.57
2023-04-30T05:19:54.922Z,3.77
2023-04-30T05:24:57.496Z,3.53
2023-04-30T05:29:59.644Z,2.30
2023-04-30T05:35:03.580Z,4.27
2023-04-30T05:40:07.189Z,4.77
2023-04-30T05:45:10.342Z,5.00
2023-04-30T05:50:14.016Z,4.70
2023-04-30T05:55:16.148Z,2.17
2023-04-30T06:00:18.417Z,5.33
2023-04-30T06:05:21.743Z,2.67
2023-04-30T06:10:24.077Z,6.97
2023-04-30T06:15:26.158Z,5.40
2023-04-30T06:20:29.750Z,2.60
2023-04-30T06:25:31.527Z,2.87
2023-04-30T06:30:33.923Z,4.57
2023-04-30T06:35:37.593Z,5.20
2023-04-30T06:40:39.711Z,2.57
2023-04-30T06:45:41.440Z,3.43
2023-04-30T06:50:44.845Z,4.40
2023-04-30T06:55:47.012Z,9.50
2023-04-30T07:00:49.133Z,4.93
2023-04-30T07:05:52.888Z,8.80
2023-04-30T07:10:54.908Z,3.80
2023-04-30T07:15:57.181Z,3.00
2023-04-30T07:21:00.287Z,6.07
2023-04-30T07:26:03.303Z,5.77
2023-04-30T07:31:05.708Z,5.13
2023-04-30T07:36:09.439Z,3.13
2023-04-30T07:41:11.503Z,6.10
2023-04-30T07:46:13.572Z,5.47
2023-04-30T07:51:17.169Z,3.37
2023-04-30T07:56:19.301Z,4.90
2023-04-30T08:01:21.391Z,7.20
2023-04-30T08:06:25.646Z,3.70
2023-04-30T08:11:27.993Z,4.83
2023-04-30T08:16:30.166Z,4.17
2023-04-30T08:21:33.775Z,4.67
2023-04-30T08:26:35.566Z,4.93
2023-04-30T08:31:37.866Z,4.93
2023-04-30T08:36:41.525Z,5.57
2023-04-30T08:41:50.525Z,3.47
2023-04-30T08:46:54.349Z,4.47
2023-04-30T08:51:57.506Z,6.17
2023-04-30T08:56:59.581Z,4.60
2023-04-30T09:02:01.775Z,2.00
2023-04-30T09:07:06.865Z,3.93
2023-04-30T09:12:17.823Z,3.50
2023-04-30T09:17:22.100Z,4.17
2023-04-30T09:22:25.301Z,3.13
2023-04-30T09:27:27.791Z,5.13
2023-04-30T09:32:29.625Z,6.47
2023-04-30T09:37:39.132Z,2.07
2023-04-30T09:42:41.014Z,4.50
2023-04-30T09:47:43.025Z,3.57
2023-04-30T09:52:53.231Z,2.75
2023-04-30T09:57:55.660Z,2.47
2023-04-30T10:02:59.666Z,4.37
2023-04-30T10:08:03.323Z,2.07
2023-04-30T10:13:09.445Z,2.27
2023-04-30T10:18:18.021Z,2.20
2023-04-30T10:23:21.565Z,2.30
2023-04-30T10:28:24.071Z,1.70
2023-04-30T10:33:32.271Z,3.10
2023-04-30T10:38:37.796Z,2.40
2023-04-30T10:43:39.791Z,2.00
2023-04-30T10:48:41.617Z,3.03
2023-04-30T10:53:45.400Z,3.13
2023-04-30T10:58:51.200Z,4.77
2023-04-30T11:04:06.216Z,3.17
2023-04-30T11:09:09.746Z,2.90
2023-04-30T11:14:12.654Z,6.00
2023-04-30T11:19:15.320Z,4.83
2023-04-30T11:24:20.227Z,4.43
2023-04-30T11:29:22.996Z,5.03
2023-04-30T11:34:25.327Z,4.80
2023-04-30T11:39:29.566Z,4.10
2023-04-30T11:44:31.241Z,3.23
2023-04-30T11:49:33.749Z,4.77
2023-04-30T11:54:38.109Z,4.30
2023-04-30T11:59:41.168Z,3.83
2023-04-30T12:04:43.307Z,1.90
2023-04-30T12:09:56.545Z,2.77
2023-04-30T12:14:58.808Z,4.77
2023-04-30T12:20:00.965Z,2.73
2023-04-30T12:25:08.961Z,3.00
2023-04-30T12:30:11.476Z,5.00
2023-04-30T12:35:14.947Z,3.30
2023-04-30T12:40:19.918Z,3.07
2023-04-30T12:45:43.907Z,4.07
2023-04-30T12:50:52.679Z,3.13
2023-04-30T12:56:13.314Z,2.50
2023-04-30T13:01:17.867Z,2.20
2023-04-30T13:06:21.265Z,4.07
2023-04-30T13:11:24.680Z,4.00
2023-04-30T13:16:26.951Z,5.23
2023-04-30T13:21:28.812Z,3.03
2023-04-30T13:26:32.392Z,3.73
2023-04-30T13:31:34.240Z,2.50
2023-04-30T13:36:36.332Z,3.67
2023-04-30T13:41:40.198Z,2.60
2023-04-30T13:46:42.240Z,1.87
2023-04-30T13:51:44.355Z,3.77
2023-04-30T13:56:47.489Z,6.73
2023-04-30T14:01:49.475Z,5.33
2023-04-30T14:06:51.774Z,2.70
2023-04-30T14:11:55.410Z,3.13
2023-04-30T14:16:57.467Z,2.93
2023-04-30T14:21:59.186Z,2.87
2023-04-30T14:27:02.622Z,2.53
2023-04-30T14:32:07.863Z,4.50
2023-04-30T14:37:10.085Z,1.90
2023-04-30T14:42:13.420Z,3.53
2023-04-30T14:47:17.790Z,2.50
2023-04-30T14:52:19.899Z,2.90
2023-04-30T14:57:23.530Z,4.80
2023-04-30T15:02:25.433Z,4.30
2023-04-30T15:07:27.721Z,3.80
2023-04-30T15:12:30.917Z,3.97
2023-04-30T15:17:32.909Z,5.90
2023-04-30T15:22:34.693Z,2.53
2023-04-30T15:27:38.024Z,6.33
2023-04-30T15:32:39.961Z,2.63
2023-04-30T15:37:42.086Z,1.60
2023-04-30T15:42:45.448Z,3.10
2023-04-30T15:47:47.256Z,2.93
2023-04-30T15:52:49.543Z,3.90
2023-04-30T15:57:52.742Z,1.77
2023-04-30T16:02:55.258Z,6.60
2023-04-30T16:07:57.517Z,3.57
2023-04-30T16:13:01.016Z,4.23
2023-04-30T16:18:03.267Z,3.93
2023-04-30T16:23:05.856Z,2.10
2023-04-30T16:28:09.203Z,4.77
2023-04-30T16:33:11.139Z,5.07
2023-04-30T16:38:13.239Z,3.73
2023-04-30T16:43:16.911Z,2.00
2023-04-30T16:48:18.791Z,4.03
2023-04-30T16:53:20.999Z,2.00
2023-04-30T16:58:24.647Z,2.37
2023-04-30T17:03:26.891Z,6.03
2023-04-30T17:08:28.862Z,2.87
2023-04-30T17:13:32.278Z,4.70
2023-04-30T17:18:33.981Z,6.77
2023-04-30T17:23:35.725Z,7.63
2023-04-30T17:28:39.007Z,4.40
2023-04-30T17:33:41.524Z,4.73
2023-04-30T17:38:43.684Z,2.90
2023-04-30T17:43:47.503Z,7.40
2023-04-30T17:48:49.678Z,5.33
2023-04-30T17:53:51.327Z,2.17
2023-04-30T17:58:54.810Z,3.10
2023-04-30T18:03:59.499Z,6.47
2023-04-30T18:09:01.361Z,5.47
2023-04-30T18:14:04.560Z,4.97
2023-04-30T18:19:06.452Z,2.60
2023-04-30T18:24:08.237Z,1.90
2023-04-30T18:29:11.422Z,4.67
2023-04-30T18:34:13.683Z,4.90
2023-04-30T18:39:15.395Z,4.13
2023-04-30T18:44:19.696Z,2.83
2023-04-30T18:49:21.387Z,5.47
2023-04-30T18:54:23.865Z,6.40
2023-04-30T18:59:26.904Z,4.03
2023-04-30T19:04:29.027Z,8.43
2023-04-30T19:09:30.787Z,7.43
2023-04-30T19:14:35.449Z,12.80
2023-04-30T19:19:37.158Z,18.70
2023-04-30T19:24:38.831Z,12.57
2023-04-30T19:29:42.335Z,9.20
2023-04-30T19:34:44.053Z,9.37
2023-04-30T19:39:46.179Z,8.37
2023-04-30T19:44:51.997Z,10.37
2023-04-30T19:49:54.003Z,13.77
2023-04-30T19:54:56.297Z,7.00
2023-04-30T19:59:59.793Z,6.63
2023-04-30T20:05:01.529Z,8.10
2023-04-30T20:10:04.007Z,4.90
2023-04-30T20:15:08.406Z,6.40
2023-04-30T20:20:11.370Z,7.33
2023-04-30T20:25:13.176Z,4.83
2023-04-30T20:30:16.976Z,5.57
2023-04-30T20:35:18.718Z,6.53
2023-04-30T20:40:20.754Z,6.13
2023-04-30T20:45:24.482Z,6.37
2023-04-30T20:50:26.541Z,4.77
2023-04-30T20:55:28.640Z,8.10
2023-04-30T21:00:31.760Z,8.67
2023-04-30T21:05:34.313Z,7.57
2023-04-30T21:10:37.057Z,8.47
2023-04-30T21:15:40.458Z,6.80
2023-04-30T21:20:42.408Z,5.30
2023-04-30T21:25:44.888Z,7.70
2023-04-30T21:30:48.771Z,5.67
2023-04-30T21:35:51.093Z,11.77
2023-04-30T21:40:54.123Z,12.73
2023-04-30T21:46:02.866Z,33.57
2023-04-30T21:51:11.662Z,21.70
2023-04-30T21:56:14.164Z,13.70
2023-04-30T22:01:17.832Z,10.90
2023-04-30T22:06:19.584Z,7.10
2023-04-30T22:11:21.746Z,7.20
2023-04-30T22:16:25.314Z,10.67
2023-04-30T22:21:27.185Z,9.93
2023-04-30T22:26:28.872Z,7.40
2023-04-30T22:31:31.997Z,8.60
2023-04-30T22:36:34.137Z,6.97
2023-04-30T22:41:36.242Z,7.27
2023-04-30T22:46:39.950Z,9.03
2023-04-30T22:51:43.100Z,4.83
2023-04-30T22:56:44.831Z,9.50
2023-04-30T23:01:48.430Z,9.57
2023-04-30T23:06:50.220Z,9.93
2023-04-30T23:11:52.016Z,5.60
2023-04-30T23:16:55.255Z,7.83
2023-04-30T23:21:57.442Z,6.10
2023-04-30T23:26:59.864Z,6.83
2023-04-30T23:32:03.444Z,6.23
2023-04-30T23:37:05.824Z,7.60
2023-04-30T23:42:08.293Z,6.57
2023-04-30T23:47:11.773Z,9.53
2023-04-30T23:52:13.512Z,7.47
2023-04-30T23:57:15.636Z,9.67
